Terminal Aerodrome Forecast
Issued by NWS

Home | Current Version | Previous Version | Text Only | Print | Product List | Glossary On
Versions: 1 2 3 4 5 6 7 8 9 10 11 12 13 14 15 16 17 18
000
FTUS45 KABQ 021727
TAFSAF
TAF
KSAF 021727Z 0218/0318 VRB06KT P6SM SCT060 SCT100
     FM021900 26010KT P6SM VCTS BKN060CB
      TEMPO 0220/0223 VRB15G25KT -TSRA BKN050CB
     FM030000 33007KT P6SM VCSH BKN060
     FM030600 01006KT P6SM BKN080=

USA.gov is the U.S. government's official web portal to all federal, state and local government web resources and services.